Time;durP1;ratioP1;P1;durP2;ratioP2;P2;SDS_P1;SDS_P2;PMS_P1;PMS_P2;Temp;Humidity;BMP_temperature;BMP_pressure;BME280_temperature;BME280_humidity;BME280_pressure;Samples;Min_cycle;Max_cycle;Signal;HPM_P1;HPM_P2
2023/03/03 00:00:49;;;;;;;61.17;29.33;;;1.70;95.80;;;;;;5035238;28;20029;-83
2023/03/03 00:03:17;;;;;;;64.57;30.00;;;1.70;95.90;;;;;;5025540;28;20438;-83
2023/03/03 00:05:43;;;;;;;69.10;30.08;;;1.70;95.80;;;;;;5033287;28;20033;-83
2023/03/03 00:08:09;;;;;;;63.95;29.38;;;1.80;95.90;;;;;;5040362;28;20033;-83
2023/03/03 00:10:35;;;;;;;63.22;29.15;;;1.70;95.80;;;;;;5034528;28;20025;-83
2023/03/03 00:13:01;;;;;;;66.88;29.70;;;1.80;95.80;;;;;;5021071;28;20064;-83
2023/03/03 00:15:27;;;;;;;63.40;30.60;;;1.70;95.80;;;;;;5025704;28;20412;-83
2023/03/03 00:17:53;;;;;;;63.47;30.45;;;1.70;95.90;;;;;;5042773;28;20040;-83
2023/03/03 00:20:36;;;;;;;57.95;28.17;;;1.70;95.80;;;;;;5038073;28;20045;-83
2023/03/03 00:23:43;;;;;;;62.15;29.15;;;1.80;96.00;;;;;;5030255;28;20052;-83
2023/03/03 00:26:36;;;;;;;51.63;25.88;;;1.70;95.90;;;;;;5020152;28;20421;-83
2023/03/03 00:29:25;;;;;;;58.15;27.75;;;1.80;96.00;;;;;;5053285;28;20049;-83
2023/03/03 00:31:50;;;;;;;56.35;27.13;;;1.80;96.00;;;;;;5033152;28;20029;-83
2023/03/03 00:34:16;;;;;;;61.40;28.75;;;1.70;95.90;;;;;;5030100;28;20044;-82
2023/03/03 00:36:42;;;;;;;58.65;27.88;;;1.70;96.00;;;;;;5032252;28;20088;-83
2023/03/03 00:39:18;;;;;;;51.05;24.90;;;1.80;96.20;;;;;;5044908;28;20060;-83
2023/03/03 00:41:44;;;;;;;54.47;25.10;;;1.70;96.00;;;;;;5032595;28;20420;-83
2023/03/03 00:44:41;;;;;;;51.17;24.63;;;1.70;96.30;;;;;;5044404;28;20033;-83
2023/03/03 00:47:27;;;;;;;51.75;23.55;;;1.70;96.30;;;;;;5029735;28;20047;-83
2023/03/03 00:50:11;;;;;;;51.88;22.73;;;1.70;96.40;;;;;;5036440;28;20029;-83
2023/03/03 00:52:49;;;;;;;56.65;23.75;;;1.70;96.50;;;;;;5040973;28;20081;-83
2023/03/03 00:55:14;;;;;;;52.65;24.42;;;1.70;96.70;;;;;;5041704;28;20116;-83
2023/03/03 00:57:40;;;;;;;48.13;21.38;;;1.80;96.70;;;;;;5033186;28;20120;-83
2023/03/03 01:00:06;;;;;;;51.50;22.67;;;1.70;96.60;;;;;;5033119;28;20041;-83
2023/03/03 01:02:31;;;;;;;53.30;23.83;;;1.70;96.70;;;;;;5033913;28;20474;-82
2023/03/03 01:04:57;;;;;;;54.83;24.83;;;1.70;96.70;;;;;;5034496;28;20052;-83
2023/03/03 01:07:22;;;;;;;58.67;24.48;;;1.80;96.80;;;;;;5027822;28;20042;-83
2023/03/03 01:09:48;;;;;;;51.35;22.83;;;1.70;96.70;;;;;;5045264;28;20088;-83
2023/03/03 01:12:14;;;;;;;54.60;24.38;;;1.70;96.80;;;;;;5034602;28;20030;-83
2023/03/03 01:14:40;;;;;;;45.70;21.27;;;1.70;96.80;;;;;;5042049;28;20033;-83
2023/03/03 01:17:06;;;;;;;52.95;23.42;;;1.60;97.00;;;;;;5011791;28;20585;-83
2023/03/03 01:19:31;;;;;;;51.53;23.65;;;1.60;97.10;;;;;;5032457;28;20533;-83
2023/03/03 01:21:57;;;;;;;53.25;22.70;;;1.70;97.20;;;;;;5030689;28;20033;-82
2023/03/03 01:24:23;;;;;;;55.33;23.52;;;1.60;97.30;;;;;;5039311;28;20052;-83
2023/03/03 01:26:48;;;;;;;49.83;22.92;;;1.70;97.40;;;;;;5034193;28;20041;-83
2023/03/03 01:29:14;;;;;;;53.42;23.83;;;1.60;97.40;;;;;;5016377;28;20053;-83
2023/03/03 01:31:39;;;;;;;56.35;24.17;;;1.70;97.60;;;;;;5036345;28;20034;-83
2023/03/03 01:34:06;;;;;;;54.00;24.75;;;1.70;97.60;;;;;;5027238;28;20095;-83
2023/03/03 01:36:33;;;;;;;51.38;22.85;;;1.60;97.60;;;;;;5033208;28;20132;-83
2023/03/03 01:38:59;;;;;;;52.40;23.33;;;1.60;97.80;;;;;;5044318;28;20079;-83
2023/03/03 01:41:29;;;;;;;53.80;24.65;;;1.60;97.90;;;;;;5039826;28;20033;-83
2023/03/03 01:43:54;;;;;;;59.17;23.50;;;1.60;98.00;;;;;;5035637;28;20033;-83
2023/03/03 01:46:23;;;;;;;58.75;22.98;;;1.50;98.10;;;;;;5025206;28;20280;-83
2023/03/03 01:48:52;;;;;;;54.42;22.55;;;1.60;98.10;;;;;;5033194;28;20478;-83
2023/03/03 01:51:43;;;;;;;52.88;23.55;;;1.60;98.30;;;;;;5031916;28;20026;-83
2023/03/03 01:54:16;;;;;;;51.47;23.52;;;1.60;98.20;;;;;;5029144;28;20071;-83
2023/03/03 01:56:42;;;;;;;54.20;22.55;;;1.50;98.40;;;;;;5030076;28;20041;-83
2023/03/03 01:59:20;;;;;;;65.22;24.73;;;1.50;98.40;;;;;;5039124;28;20030;-83
2023/03/03 02:01:47;;;;;;;56.85;24.02;;;1.50;98.50;;;;;;5034067;28;20463;-83
2023/03/03 02:04:12;;;;;;;51.13;23.35;;;1.60;98.60;;;;;;5039878;28;20041;-83
2023/03/03 02:06:43;;;;;;;60.10;24.42;;;1.60;98.60;;;;;;5034871;28;20379;-83
2023/03/03 02:09:13;;;;;;;55.40;25.30;;;1.50;98.60;;;;;;5032965;28;20527;-83
2023/03/03 02:11:42;;;;;;;60.17;22.02;;;1.50;98.60;;;;;;5033876;28;20055;-82
2023/03/03 02:14:09;;;;;;;56.80;23.33;;;1.50;98.70;;;;;;5040949;28;20033;-83
2023/03/03 02:16:34;;;;;;;56.10;23.75;;;1.50;98.70;;;;;;5025365;28;20041;-83
2023/03/03 02:19:00;;;;;;;55.03;22.40;;;1.50;98.70;;;;;;5036509;28;20156;-83
2023/03/03 02:21:26;;;;;;;56.72;22.88;;;1.60;98.80;;;;;;5039467;28;20053;-82
2023/03/03 02:24:03;;;;;;;55.88;23.77;;;1.50;98.80;;;;;;5045428;28;20029;-83
2023/03/03 02:26:31;;;;;;;52.03;21.88;;;1.50;98.80;;;;;;5033868;28;20085;-82
2023/03/03 02:28:56;;;;;;;60.53;23.30;;;1.40;98.70;;;;;;5036680;28;20474;-83
2023/03/03 02:31:24;;;;;;;55.50;22.63;;;1.40;98.80;;;;;;5039870;28;20022;-83
2023/03/03 02:33:52;;;;;;;62.50;23.27;;;1.40;98.90;;;;;;5043684;28;20032;-83
2023/03/03 02:36:21;;;;;;;54.83;23.48;;;1.40;98.90;;;;;;5050109;28;20025;-82
2023/03/03 02:39:04;;;;;;;54.78;23.55;;;1.50;99.00;;;;;;5037177;28;20032;-83
2023/03/03 02:41:33;;;;;;;60.03;23.98;;;1.50;99.00;;;;;;5027675;28;20056;-83
2023/03/03 02:44:05;;;;;;;62.65;26.13;;;1.60;99.00;;;;;;5053865;28;20071;-83
2023/03/03 02:46:37;;;;;;;65.60;24.88;;;1.50;99.00;;;;;;5037412;28;20046;-82
2023/03/03 02:49:05;;;;;;;63.60;23.10;;;1.60;99.00;;;;;;5041393;28;20063;-83
2023/03/03 02:51:31;;;;;;;63.58;24.30;;;1.40;98.90;;;;;;5043804;28;20462;-83
2023/03/03 02:53:56;;;;;;;62.90;24.83;;;1.40;99.10;;;;;;5035569;28;20470;-83
2023/03/03 02:56:22;;;;;;;58.15;23.95;;;1.50;99.10;;;;;;5035667;28;20109;-83
2023/03/03 02:58:47;;;;;;;57.13;23.00;;;1.40;99.10;;;;;;5031713;28;20363;-82
2023/03/03 03:01:13;;;;;;;46.95;21.65;;;1.40;99.10;;;;;;5033234;28;20131;-82
2023/03/03 03:03:39;;;;;;;59.40;22.60;;;1.40;99.10;;;;;;5035874;28;20036;-82
2023/03/03 03:06:05;;;;;;;65.45;23.77;;;1.40;99.10;;;;;;5033123;28;20379;-82
2023/03/03 03:08:30;;;;;;;80.35;24.20;;;1.40;99.10;;;;;;5051650;28;20112;-82
2023/03/03 03:10:56;;;;;;;68.20;23.08;;;1.30;99.10;;;;;;5046479;28;20100;-82
2023/03/03 03:13:23;;;;;;;63.58;24.52;;;1.30;99.20;;;;;;5042781;28;20037;-82
2023/03/03 03:15:48;;;;;;;49.00;21.95;;;1.30;99.30;;;;;;5035717;28;20076;-82
2023/03/03 03:18:14;;;;;;;49.60;22.52;;;1.20;99.10;;;;;;5042456;28;20041;-81
2023/03/03 03:20:40;;;;;;;53.53;21.85;;;1.20;99.10;;;;;;5051014;28;20445;-83
2023/03/03 03:23:06;;;;;;;56.13;22.88;;;1.10;99.20;;;;;;5053848;28;20104;-83
2023/03/03 03:25:32;;;;;;;52.45;22.08;;;1.10;99.30;;;;;;5038129;28;20109;-83
2023/03/03 03:27:57;;;;;;;65.15;23.98;;;1.10;99.30;;;;;;5036055;28;20049;-82
2023/03/03 03:30:23;;;;;;;62.22;24.10;;;1.20;99.30;;;;;;5034228;28;20112;-83
2023/03/03 03:32:48;;;;;;;58.40;22.80;;;1.10;99.20;;;;;;5037977;28;20036;-83
2023/03/03 03:35:16;;;;;;;64.47;25.92;;;1.10;99.30;;;;;;5038001;28;20048;-83
2023/03/03 03:37:41;;;;;;;71.68;24.70;;;1.20;99.50;;;;;;5034330;28;20049;-83
2023/03/03 03:40:07;;;;;;;83.53;22.52;;;1.10;99.40;;;;;;5032620;28;20038;-83
2023/03/03 03:42:33;;;;;;;78.35;23.90;;;1.10;99.40;;;;;;5032396;28;20036;-83
2023/03/03 03:44:58;;;;;;;62.88;24.40;;;1.10;99.40;;;;;;5048919;28;20034;-82
2023/03/03 03:47:24;;;;;;;79.57;23.92;;;1.10;99.40;;;;;;5041969;28;20041;-83
2023/03/03 03:49:49;;;;;;;63.22;25.05;;;1.10;99.50;;;;;;5028040;28;20053;-83
2023/03/03 03:52:15;;;;;;;72.95;24.48;;;1.10;99.50;;;;;;5043216;28;20100;-83
2023/03/03 03:54:40;;;;;;;70.80;24.52;;;1.10;99.50;;;;;;5028669;28;20085;-83
2023/03/03 03:57:06;;;;;;;71.32;24.20;;;1.00;99.40;;;;;;5036580;28;20037;-83
2023/03/03 03:59:31;;;;;;;74.70;24.50;;;1.00;99.40;;;;;;5037118;28;20037;-82
2023/03/03 04:01:57;;;;;;;67.00;25.20;;;1.00;99.50;;;;;;5034602;28;20029;-83
2023/03/03 04:04:22;;;;;;;62.78;24.67;;;1.00;99.60;;;;;;5037150;28;20028;-83
2023/03/03 04:06:48;;;;;;;78.75;24.98;;;1.00;99.60;;;;;;5037564;28;20100;-83
2023/03/03 04:09:14;;;;;;;71.45;24.25;;;1.00;99.50;;;;;;5033530;28;20044;-83
2023/03/03 04:11:40;;;;;;;63.20;23.77;;;1.00;99.60;;;;;;5028527;28;20041;-83
2023/03/03 04:14:05;;;;;;;66.22;23.27;;;0.90;99.60;;;;;;5038422;28;20446;-83
2023/03/03 04:16:31;;;;;;;54.33;22.52;;;0.80;99.50;;;;;;5028831;28;20057;-83
2023/03/03 04:18:56;;;;;;;60.95;23.80;;;0.80;99.60;;;;;;5034380;28;20072;-83
2023/03/03 04:21:22;;;;;;;69.95;21.98;;;0.80;99.70;;;;;;5032535;28;20056;-83
2023/03/03 04:23:47;;;;;;;82.78;22.90;;;0.70;99.60;;;;;;5028607;28;20033;-83
2023/03/03 04:26:13;;;;;;;76.43;22.83;;;0.70;99.70;;;;;;5039379;28;20414;-83
2023/03/03 04:28:38;;;;;;;78.13;23.92;;;0.70;99.70;;;;;;5050176;28;20051;-83
2023/03/03 04:31:04;;;;;;;66.60;22.90;;;0.70;99.70;;;;;;5029994;28;20421;-82
2023/03/03 04:33:29;;;;;;;72.18;22.50;;;0.70;99.70;;;;;;5037584;28;20034;-82
2023/03/03 04:35:55;;;;;;;61.83;23.58;;;0.80;99.80;;;;;;5042520;28;20041;-82
2023/03/03 04:38:21;;;;;;;86.25;22.60;;;0.80;99.80;;;;;;5043072;28;20042;-83
2023/03/03 04:40:46;;;;;;;68.10;21.80;;;0.70;99.80;;;;;;5033418;28;20036;-83
2023/03/03 04:43:12;;;;;;;71.70;22.52;;;0.70;99.80;;;;;;5017450;28;20025;-82
2023/03/03 04:45:38;;;;;;;59.60;24.25;;;0.70;99.80;;;;;;5039524;28;20068;-82
2023/03/03 04:48:03;;;;;;;55.50;22.67;;;0.70;99.90;;;;;;5025539;28;20037;-82
2023/03/03 04:50:29;;;;;;;62.38;24.73;;;0.60;99.80;;;;;;5032568;28;20051;-80
2023/03/03 04:52:54;;;;;;;77.10;25.40;;;0.60;99.80;;;;;;5026546;28;20081;-82
2023/03/03 04:55:20;;;;;;;87.45;24.25;;;0.70;99.90;;;;;;5032086;28;20069;-82
2023/03/03 04:57:45;;;;;;;91.47;24.75;;;0.70;99.90;;;;;;5023668;28;20076;-79
2023/03/03 05:00:12;;;;;;;74.55;24.85;;;0.80;99.90;;;;;;5038122;28;20037;-79
2023/03/03 05:02:39;;;;;;;74.65;24.85;;;0.70;99.90;;;;;;5020523;28;20136;-81
2023/03/03 05:05:06;;;;;;;80.80;23.65;;;0.80;99.90;;;;;;5034933;28;20033;-82
2023/03/03 05:07:31;;;;;;;86.72;23.85;;;0.70;99.90;;;;;;5030166;28;20045;-81
2023/03/03 05:09:57;;;;;;;61.67;22.02;;;0.70;99.90;;;;;;5028584;28;20418;-83
2023/03/03 05:12:22;;;;;;;60.95;24.67;;;0.70;99.90;;;;;;5036933;28;20035;-79
2023/03/03 05:14:48;;;;;;;57.92;22.30;;;0.60;99.90;;;;;;5029060;28;20033;-79
2023/03/03 05:17:13;;;;;;;60.38;21.52;;;0.60;99.90;;;;;;5029993;28;20040;-82
2023/03/03 05:19:39;;;;;;;68.90;20.98;;;0.60;99.90;;;;;;5012189;28;20037;-80
2023/03/03 05:22:05;;;;;;;72.47;22.27;;;0.50;99.90;;;;;;5028210;28;20112;-79
2023/03/03 05:24:30;;;;;;;57.03;22.98;;;0.50;99.90;;;;;;5028333;28;20466;-81
2023/03/03 05:26:56;;;;;;;92.47;23.05;;;0.60;99.90;;;;;;5024352;28;20045;-79
2023/03/03 05:29:21;;;;;;;88.13;22.98;;;0.60;99.90;;;;;;5027063;28;20072;-82
2023/03/03 05:31:47;;;;;;;76.97;23.00;;;0.60;99.90;;;;;;5024967;28;20064;-75
2023/03/03 05:34:12;;;;;;;58.88;21.85;;;0.50;99.90;;;;;;5025064;28;20034;-74
2023/03/03 05:36:38;;;;;;;54.05;22.98;;;0.60;99.90;;;;;;5029890;28;20104;-75
2023/03/03 05:39:04;;;;;;;59.17;21.48;;;0.70;99.90;;;;;;5031925;28;20065;-74
2023/03/03 05:41:29;;;;;;;78.57;21.15;;;0.70;99.90;;;;;;5035840;28;20087;-74
2023/03/03 05:43:55;;;;;;;70.45;21.98;;;0.60;99.90;;;;;;5025427;28;20035;-74
2023/03/03 05:46:20;;;;;;;61.92;21.92;;;0.50;99.90;;;;;;5036678;28;20458;-75
2023/03/03 05:48:46;;;;;;;56.92;20.13;;;0.50;99.90;;;;;;5046593;28;20025;-74
2023/03/03 05:51:11;;;;;;;64.57;19.75;;;0.40;99.90;;;;;;5036156;28;20037;-74
2023/03/03 05:53:37;;;;;;;50.63;18.83;;;0.40;99.90;;;;;;5043241;28;20033;-74
2023/03/03 05:56:02;;;;;;;45.90;17.92;;;0.40;99.90;;;;;;5028520;28;20037;-74
2023/03/03 05:58:29;;;;;;;56.08;18.77;;;0.40;99.90;;;;;;5024668;28;20041;-74
2023/03/03 06:00:54;;;;;;;47.28;19.65;;;0.30;99.90;;;;;;5038857;28;20034;-71
2023/03/03 06:03:20;;;;;;;44.88;18.23;;;0.30;99.90;;;;;;5027865;28;20493;-75
2023/03/03 06:05:45;;;;;;;59.00;19.20;;;0.40;99.90;;;;;;5027946;28;20394;-74
2023/03/03 06:08:11;;;;;;;51.35;19.30;;;0.40;99.90;;;;;;5026197;28;20045;-74
2023/03/03 06:10:36;;;;;;;61.33;20.88;;;0.40;99.90;;;;;;5035787;28;20109;-74
2023/03/03 06:13:02;;;;;;;87.80;19.63;;;0.40;99.90;;;;;;5022256;28;20036;-74
2023/03/03 06:15:27;;;;;;;60.40;21.20;;;0.40;99.90;;;;;;5034853;28;20092;-74
2023/03/03 06:17:53;;;;;;;72.32;20.35;;;0.40;99.90;;;;;;5038120;28;20048;-75
2023/03/03 06:20:18;;;;;;;47.13;19.80;;;0.50;99.90;;;;;;5032958;28;20029;-74
2023/03/03 06:22:44;;;;;;;47.80;17.67;;;0.50;99.90;;;;;;5040646;28;20060;-75
2023/03/03 06:25:10;;;;;;;39.45;17.13;;;0.50;99.90;;;;;;5013024;28;20029;-74
2023/03/03 06:27:35;;;;;;;45.33;17.52;;;0.30;99.90;;;;;;5022067;28;20038;-74
2023/03/03 06:30:01;;;;;;;45.08;17.60;;;0.30;99.90;;;;;;5045409;28;20065;-74
2023/03/03 06:32:27;;;;;;;43.95;18.20;;;0.30;99.90;;;;;;5037384;28;20072;-74
2023/03/03 06:34:52;;;;;;;73.00;19.17;;;0.30;99.90;;;;;;5019097;28;20416;-74
2023/03/03 06:37:18;;;;;;;71.88;19.35;;;0.30;99.90;;;;;;5035476;28;20041;-74
2023/03/03 06:39:43;;;;;;;87.57;18.85;;;0.30;99.90;;;;;;5037978;28;20029;-74
2023/03/03 06:42:09;;;;;;;59.90;18.73;;;0.30;99.90;;;;;;5031615;28;20048;-74
2023/03/03 06:44:35;;;;;;;87.47;20.00;;;0.30;99.90;;;;;;5013768;28;20053;-74
2023/03/03 06:47:01;;;;;;;70.63;18.00;;;0.30;99.90;;;;;;5036478;28;20033;-74
2023/03/03 06:49:26;;;;;;;61.58;18.65;;;0.30;99.90;;;;;;5018825;28;20064;-74
2023/03/03 06:51:52;;;;;;;51.45;17.30;;;0.30;99.90;;;;;;5035251;28;20112;-75
2023/03/03 06:54:25;;;;;;;59.42;19.48;;;0.30;99.90;;;;;;5031403;28;20120;-74
2023/03/03 06:56:55;;;;;;;49.17;17.40;;;0.20;99.90;;;;;;5037534;28;20044;-74
2023/03/03 06:59:20;;;;;;;48.45;17.73;;;0.30;99.90;;;;;;5031194;28;20438;-74
2023/03/03 07:01:48;;;;;;;49.67;16.90;;;0.40;99.90;;;;;;5040755;28;20444;-74
2023/03/03 07:04:32;;;;;;;44.60;17.67;;;0.40;99.90;;;;;;5034433;28;20025;-74
2023/03/03 07:07:04;;;;;;;62.83;19.13;;;0.40;99.90;;;;;;5033140;28;20035;-74
2023/03/03 07:09:30;;;;;;;56.97;17.73;;;0.50;99.90;;;;;;5026637;28;20041;-74
2023/03/03 07:12:01;;;;;;;53.75;18.75;;;0.50;99.90;;;;;;5036177;28;20041;-74
2023/03/03 07:14:28;;;;;;;53.95;17.55;;;0.60;99.90;;;;;;5032125;28;20029;-74
2023/03/03 07:16:59;;;;;;;49.42;17.83;;;0.60;99.90;;;;;;5045835;28;20055;-75
2023/03/03 07:19:29;;;;;;;;;;;0.60;99.90;;;;;;5040807;28;20482;-74
2023/03/03 07:21:55;;;;;;;67.05;17.60;;;0.60;99.90;;;;;;5041662;28;20007;-74
2023/03/03 07:24:27;;;;;;;47.05;16.27;;;0.60;99.90;;;;;;5030917;28;20113;-74
2023/03/03 07:27:23;;;;;;;43.60;16.05;;;0.60;99.90;;;;;;5038376;28;20121;-74
2023/03/03 07:29:50;;;;;;;41.53;16.98;;;0.70;99.90;;;;;;5033811;28;20520;-74
2023/03/03 07:32:33;;;;;;;49.92;18.40;;;0.70;99.90;;;;;;5032210;28;20492;-75
2023/03/03 07:34:59;;;;;;;44.17;16.42;;;0.70;99.90;;;;;;5052256;28;20106;-74
2023/03/03 07:37:38;;;;;;;49.58;16.15;;;0.80;99.90;;;;;;5050544;28;20121;-75
2023/03/03 07:40:32;;;;;;;38.15;16.73;;;0.80;99.90;;;;;;5035136;28;20025;-75
2023/03/03 07:42:58;;;;;;;50.60;17.10;;;0.90;99.90;;;;;;5041409;28;20025;-75
2023/03/03 07:45:33;;;;;;;39.53;16.35;;;0.90;99.90;;;;;;5039628;28;20028;-75
2023/03/03 07:48:22;;;;;;;55.72;18.58;;;0.90;99.90;;;;;;5039185;28;20041;-75
2023/03/03 07:50:48;;;;;;;49.10;16.98;;;1.00;99.90;;;;;;5032166;28;20080;-75
2023/03/03 07:53:27;;;;;;;46.55;17.40;;;1.00;99.90;;;;;;5036481;28;20553;-75
2023/03/03 07:55:53;;;;;;;44.60;16.08;;;1.10;99.90;;;;;;5040010;28;20045;-75
2023/03/03 07:58:34;;;;;;;44.60;17.17;;;1.10;99.90;;;;;;5033232;28;20508;-75
2023/03/03 08:01:33;;;;;;;41.83;16.20;;;1.20;99.90;;;;;;5051015;28;20056;-75
2023/03/03 08:03:59;;;;;;;37.88;17.15;;;1.30;99.90;;;;;;5025410;28;20029;-75
2023/03/03 08:06:50;;;;;;;33.78;15.40;;;1.40;99.90;;;;;;5035181;28;20556;-75
2023/03/03 08:09:18;;;;;;;38.42;15.50;;;1.40;99.90;;;;;;5047652;28;20494;-75
2023/03/03 08:11:48;;;;;;;36.03;15.27;;;1.40;99.90;;;;;;5032335;28;20029;-75
2023/03/03 08:14:19;;;;;;;33.58;15.55;;;1.40;99.90;;;;;;5032445;28;20029;-75
2023/03/03 08:16:45;;;;;;;32.30;15.30;;;1.40;99.80;;;;;;5035414;28;20041;-75
2023/03/03 08:19:12;;;;;;;35.63;15.57;;;1.60;99.90;;;;;;5042014;28;20044;-75
2023/03/03 08:21:38;;;;;;;28.08;14.70;;;1.70;99.90;;;;;;5033705;28;20393;-75
2023/03/03 08:24:03;;;;;;;31.20;14.85;;;1.80;99.80;;;;;;5050108;28;20041;-75
2023/03/03 08:26:29;;;;;;;28.35;13.88;;;1.70;99.60;;;;;;5038171;28;20044;-75
2023/03/03 08:28:54;;;;;;;31.45;14.10;;;1.80;99.60;;;;;;5034939;28;20057;-75
2023/03/03 08:31:20;;;;;;;27.23;13.27;;;1.70;99.30;;;;;;5034945;28;20017;-74
2023/03/03 08:33:46;;;;;;;27.70;12.95;;;1.70;99.40;;;;;;5041749;28;20156;-75
2023/03/03 08:36:12;;;;;;;26.63;12.88;;;1.80;99.20;;;;;;5037524;28;20037;-75
2023/03/03 08:38:38;;;;;;;26.95;13.05;;;1.90;99.20;;;;;;5037889;28;20055;-75
2023/03/03 08:41:04;;;;;;;24.08;12.30;;;1.90;99.10;;;;;;5027288;28;20116;-75
2023/03/03 08:43:30;;;;;;;26.85;12.52;;;1.90;98.90;;;;;;5022073;28;20021;-75
2023/03/03 08:45:59;;;;;;;22.35;12.43;;;2.00;99.00;;;;;;5029463;28;20034;-75
2023/03/03 08:48:25;;;;;;;20.38;10.93;;;2.00;98.80;;;;;;5037578;28;20046;-75
2023/03/03 08:50:51;;;;;;;22.33;11.32;;;2.10;98.70;;;;;;5034975;28;20040;-75
2023/03/03 08:53:18;;;;;;;19.70;10.93;;;2.10;98.60;;;;;;5030635;28;20474;-75
2023/03/03 08:55:44;;;;;;;18.63;10.57;;;2.30;98.50;;;;;;5026568;28;20029;-74
2023/03/03 08:58:09;;;;;;;20.95;10.80;;;2.40;98.20;;;;;;5035092;28;20044;-74
2023/03/03 09:00:35;;;;;;;21.98;11.13;;;2.30;97.90;;;;;;5032434;28;20429;-75
2023/03/03 09:03:01;;;;;;;22.88;11.48;;;2.30;97.50;;;;;;5036278;28;20030;-74
2023/03/03 09:05:27;;;;;;;21.38;11.02;;;2.50;97.80;;;;;;5039886;28;20111;-75
2023/03/03 09:07:54;;;;;;;20.88;10.63;;;2.60;97.60;;;;;;5035442;28;20037;-74
2023/03/03 09:10:26;;;;;;;20.38;10.35;;;2.60;96.80;;;;;;5041627;28;20467;-74
2023/03/03 09:12:52;;;;;;;19.30;10.55;;;2.70;96.80;;;;;;5045192;28;20035;-75
2023/03/03 09:15:27;;;;;;;19.27;10.32;;;2.80;96.70;;;;;;5035892;28;20385;-74
2023/03/03 09:17:57;;;;;;;17.77;9.63;;;2.80;96.60;;;;;;5046372;28;20033;-74
2023/03/03 09:20:34;;;;;;;20.10;9.98;;;2.80;96.10;;;;;;5032643;28;20033;-75
2023/03/03 09:23:22;;;;;;;19.42;9.68;;;2.90;95.50;;;;;;5043250;28;20529;-74
2023/03/03 09:25:49;;;;;;;18.92;9.95;;;3.00;95.40;;;;;;5042983;28;20025;-75
2023/03/03 09:28:31;;;;;;;19.40;10.02;;;3.00;95.10;;;;;;5034602;28;20120;-74
2023/03/03 09:31:01;;;;;;;20.83;9.88;;;2.90;95.30;;;;;;5049089;28;20029;-74
2023/03/03 09:33:41;;;;;;;14.75;8.15;;;2.80;94.80;;;;;;5037888;28;20091;-74
2023/03/03 09:36:26;;;;;;;16.25;9.13;;;3.00;95.30;;;;;;5043451;28;20039;-74
2023/03/03 09:38:54;;;;;;;16.13;8.20;;;3.00;94.30;;;;;;5030835;28;20029;-75
2023/03/03 09:41:57;;;;;;;18.05;9.45;;;3.10;94.00;;;;;;5044517;28;20037;-74
2023/03/03 09:44:55;;;;;;;17.73;9.45;;;3.30;93.80;;;;;;5043345;28;20105;-74
2023/03/03 09:47:45;;;;;;;17.95;8.98;;;3.40;93.80;;;;;;4989079;28;20053;-74
2023/03/03 09:50:47;;;;;;;20.80;9.07;;;3.40;93.50;;;;;;5028468;28;20037;-75
2023/03/03 09:53:39;;;;;;;17.80;9.18;;;3.30;93.80;;;;;;5028863;28;20044;-74
2023/03/03 09:56:37;;;;;;;16.48;8.40;;;3.60;93.90;;;;;;5034630;28;20071;-74
2023/03/03 09:59:17;;;;;;;16.92;8.35;;;3.60;92.80;;;;;;5024265;28;20038;-74
2023/03/03 10:02:00;;;;;;;15.98;8.48;;;3.70;92.80;;;;;;5035362;28;20470;-75
2023/03/03 10:04:38;;;;;;;17.05;8.07;;;3.80;92.10;;;;;;5026864;28;20022;-75
2023/03/03 10:07:31;;;;;;;16.65;8.18;;;4.00;91.80;;;;;;5031187;28;20030;-75
2023/03/03 10:10:17;;;;;;;14.13;7.93;;;3.80;91.50;;;;;;5029697;28;20112;-74
2023/03/03 10:13:14;;;;;;;15.50;7.80;;;3.80;91.40;;;;;;5035752;28;20040;-74
2023/03/03 10:15:49;;;;;;;15.38;7.78;;;3.80;91.10;;;;;;5025767;28;20021;-74
2023/03/03 10:18:17;;;;;;;18.30;8.32;;;3.90;91.30;;;;;;5038316;28;20041;-75
2023/03/03 10:20:58;;;;;;;15.48;8.55;;;4.30;90.90;;;;;;5039535;28;20038;-75
2023/03/03 10:23:52;;;;;;;14.80;7.50;;;4.50;89.40;;;;;;5025875;28;20034;-75
2023/03/03 10:26:47;;;;;;;14.23;8.07;;;4.50;89.50;;;;;;5030379;28;20105;-74
2023/03/03 10:29:26;;;;;;;14.15;7.32;;;4.90;89.50;;;;;;5043149;28;20049;-74
2023/03/03 10:32:22;;;;;;;14.73;7.47;;;4.70;88.00;;;;;;5032743;28;20055;-75
2023/03/03 10:35:16;;;;;;;16.23;8.48;;;4.80;88.30;;;;;;5013603;28;20477;-75
2023/03/03 10:37:50;;;;;;;13.30;7.35;;;4.70;87.70;;;;;;5026434;28;20049;-75
2023/03/03 10:40:24;;;;;;;14.27;7.65;;;4.90;87.70;;;;;;5039155;28;20539;-75
2023/03/03 10:43:05;;;;;;;17.75;8.80;;;4.80;88.20;;;;;;5003499;28;20025;-75
2023/03/03 10:45:43;;;;;;;13.70;7.55;;;4.90;89.20;;;;;;5042669;28;20034;-74
2023/03/03 10:48:37;;;;;;;17.80;8.20;;;4.70;88.80;;;;;;5045483;28;20034;-74
2023/03/03 10:51:28;;;;;;;14.30;8.32;;;4.80;88.20;;;;;;5034292;28;20315;-75
2023/03/03 10:54:08;;;;;;;15.48;8.00;;;4.70;88.80;;;;;;5036758;28;20025;-75
2023/03/03 10:56:45;;;;;;;15.20;9.00;;;4.80;88.80;;;;;;5041648;28;20032;-75
2023/03/03 10:59:22;;;;;;;16.30;8.18;;;4.70;88.10;;;;;;5026661;28;20029;-74
2023/03/03 11:01:57;;;;;;;17.92;8.68;;;4.80;88.70;;;;;;5036143;28;20108;-74
2023/03/03 11:04:46;;;;;;;14.85;8.43;;;4.80;88.70;;;;;;5033722;28;20101;-74
2023/03/03 11:07:32;;;;;;;12.80;7.75;;;4.60;88.00;;;;;;5034586;28;20034;-75
2023/03/03 11:10:17;;;;;;;17.88;8.85;;;4.60;88.60;;;;;;5024803;28;20383;-75
2023/03/03 11:12:58;;;;;;;16.88;8.50;;;4.70;88.90;;;;;;5040700;28;20083;-74
2023/03/03 11:15:35;;;;;;;14.13;7.80;;;4.90;88.80;;;;;;5012912;28;20053;-74
2023/03/03 11:18:20;;;;;;;14.52;7.55;;;5.00;88.40;;;;;;5043842;28;20436;-75
2023/03/03 11:21:00;;;;;;;18.02;8.25;;;5.00;88.10;;;;;;5043960;28;20025;-74
2023/03/03 11:23:45;;;;;;;15.13;8.20;;;5.20;87.80;;;;;;5033529;28;20537;-74
2023/03/03 11:27:07;;;;;;;15.48;8.23;;;5.70;87.90;;;;;;5031054;28;20044;-74
2023/03/03 11:30:19;;;;;;;15.80;7.95;;;5.90;86.50;;;;;;4988681;28;20117;-75
2023/03/03 11:33:03;;;;;;;17.17;7.57;;;5.90;85.80;;;;;;4959171;28;20074;-74
2023/03/03 11:35:46;;;;;;;14.25;8.25;;;5.80;85.90;;;;;;5043797;28;20052;-75
2023/03/03 11:38:26;;;;;;;16.15;7.38;;;5.60;86.50;;;;;;5049904;28;20063;-74
2023/03/03 11:41:22;;;;;;;13.90;8.27;;;5.40;86.80;;;;;;5045378;28;20037;-75
2023/03/03 11:43:55;;;;;;;15.40;8.43;;;5.40;87.40;;;;;;5044918;28;20044;-74
2023/03/03 11:46:29;;;;;;;14.10;6.57;;;5.50;87.50;;;;;;5034327;28;20032;-74
2023/03/03 11:49:10;;;;;;;16.48;7.65;;;5.10;86.70;;;;;;5036534;28;20035;-74
2023/03/03 11:51:54;;;;;;;12.63;5.82;;;5.10;87.50;;;;;;5040209;28;20035;-75
2023/03/03 11:54:29;;;;;;;10.52;5.00;;;5.30;87.50;;;;;;5042307;28;20036;-74
2023/03/03 11:57:09;;;;;;;11.30;4.95;;;5.40;87.10;;;;;;5041262;28;20040;-74
2023/03/03 11:59:49;;;;;;;9.93;5.30;;;5.50;86.40;;;;;;5040911;28;20029;-74
2023/03/03 12:02:27;;;;;;;8.48;4.40;;;5.80;86.60;;;;;;5030784;28;20034;-75
2023/03/03 12:04:58;;;;;;;10.85;4.70;;;5.90;85.90;;;;;;5040165;28;20033;-74
2023/03/03 12:07:36;;;;;;;7.75;4.65;;;5.90;85.30;;;;;;5042844;28;20067;-75
2023/03/03 12:10:07;;;;;;;13.10;4.70;;;5.90;85.50;;;;;;5042082;28;20034;-75
2023/03/03 12:12:41;;;;;;;9.50;4.05;;;6.00;85.30;;;;;;5046373;28;20485;-74
2023/03/03 12:15:14;;;;;;;7.90;3.10;;;6.00;84.20;;;;;;5034777;28;20025;-75
2023/03/03 12:17:59;;;;;;;9.10;3.13;;;6.10;82.70;;;;;;5042913;28;20389;-75
2023/03/03 12:20:33;;;;;;;8.43;3.80;;;6.40;82.20;;;;;;5023808;28;20079;-74
2023/03/03 12:23:28;;;;;;;7.60;3.33;;;6.50;82.80;;;;;;5031712;28;20036;-75
2023/03/03 12:26:07;;;;;;;7.80;3.25;;;6.60;82.70;;;;;;5044017;28;20029;-74
2023/03/03 12:28:39;;;;;;;12.15;3.35;;;6.50;83.80;;;;;;5022483;28;20387;-75
2023/03/03 12:31:36;;;;;;;8.68;3.53;;;6.40;82.80;;;;;;5045345;28;20047;-74
2023/03/03 12:34:17;;;;;;;11.15;4.10;;;6.40;82.80;;;;;;5039001;28;20037;-75
2023/03/03 12:37:14;;;;;;;13.07;3.95;;;6.40;83.30;;;;;;5032763;28;20029;-75
2023/03/03 12:40:05;;;;;;;6.50;3.33;;;6.50;83.50;;;;;;5023716;28;20036;-74
2023/03/03 12:42:46;;;;;;;7.50;3.42;;;6.40;83.80;;;;;;5032585;28;20427;-75
2023/03/03 12:45:52;;;;;;;7.40;3.67;;;6.20;83.90;;;;;;5031673;28;20355;-74
2023/03/03 12:48:38;;;;;;;8.98;3.55;;;6.50;84.90;;;;;;5021014;28;20045;-75
2023/03/03 12:51:41;;;;;;;7.55;2.95;;;6.40;84.20;;;;;;5014782;28;20116;-75
2023/03/03 12:54:34;;;;;;;10.35;3.17;;;6.40;84.10;;;;;;5040903;28;20022;-74
2023/03/03 12:57:31;;;;;;;7.22;3.42;;;6.50;83.50;;;;;;5035327;28;20029;-75
2023/03/03 13:00:20;;;;;;;8.40;3.42;;;6.50;84.40;;;;;;5041908;28;20462;-74
2023/03/03 13:02:49;;;;;;;7.70;3.78;;;6.60;84.10;;;;;;5042577;28;20029;-74
2023/03/03 13:05:32;;;;;;;8.23;3.30;;;6.40;84.00;;;;;;5033967;28;20029;-74
2023/03/03 13:08:30;;;;;;;7.00;3.28;;;6.40;84.30;;;;;;5036727;28;20041;-75